Caprock, New Mexico
Current Conditions -  °F | °C
As of 2:51 PM on Saturday 25 Oct 2014 (Local Time) from KROW Reporting Station
Clear Clear  
Wind Chill: 82°   Ceiling: Unl
Heat Index: 82°   Visibility: 10mi
Dew Point: 52°   Wind: 9mph
Humidity: 35%   Direction: 140°SE
Pressure: 30.12"   Gusts: NA
Location:  33.39°N, 103.71°W
Report Text: KROW 252051Z 14008KT 10SM CLR 28/11 A3012 RMK AO2 SLP146 T02780111 56025
Loading
Personal Weather Stations






























Interactive Weather Map
Tropical Storm Tracking
New forecast layout! Learn more

10-Day Weather Forecast

Advertisements
Track Severe Weather on mobile